createdAt,value
2022-09-28T00:01:17.170Z,44.90
2022-09-28T00:03:45.754Z,43.73
2022-09-28T00:06:19.822Z,48.40
2022-09-28T00:08:50.652Z,44.50
2022-09-28T00:11:19.685Z,48.47
2022-09-28T00:13:50.752Z,45.25
2022-09-28T00:16:20.493Z,48.95
2022-09-28T00:18:48.476Z,51.47
2022-09-28T00:21:18.822Z,43.20
2022-09-28T00:23:46.427Z,47.55
2022-09-28T00:26:15.566Z,46.03
2022-09-28T00:28:43.292Z,49.65
2022-09-28T00:31:11.054Z,50.85
2022-09-28T00:33:38.771Z,52.80
2022-09-28T00:36:06.737Z,47.08
2022-09-28T00:38:35.014Z,51.42
2022-09-28T00:41:02.756Z,45.33
2022-09-28T00:43:32.628Z,46.47
2022-09-28T00:46:04.030Z,43.03
2022-09-28T00:51:06.549Z,43.85
2022-09-28T00:53:36.936Z,44.03
2022-09-28T00:56:07.314Z,49.67
2022-09-28T00:58:41.113Z,49.57
2022-09-28T01:01:08.903Z,52.60
2022-09-28T01:03:38.611Z,50.42
2022-09-28T01:06:07.904Z,52.47
2022-09-28T01:08:37.307Z,52.13
2022-09-28T01:11:05.250Z,49.85
2022-09-28T01:13:33.665Z,52.58
2022-09-28T01:16:12.134Z,48.53
2022-09-28T01:18:49.700Z,55.50
2022-09-28T01:21:20.164Z,47.97
2022-09-28T01:24:06.120Z,48.17
2022-09-28T01:27:05.466Z,50.85
2022-09-28T01:29:46.215Z,50.88
2022-09-28T01:32:32.463Z,49.03
2022-09-28T01:35:05.696Z,53.05
2022-09-28T01:37:41.632Z,49.78
2022-09-28T01:40:12.384Z,49.63
2022-09-28T01:42:44.903Z,49.23
2022-09-28T01:45:18.382Z,50.17
2022-09-28T01:47:47.786Z,49.47
2022-09-28T01:50:18.468Z,48.45
2022-09-28T01:52:52.374Z,50.50
2022-09-28T01:55:28.197Z,54.28
2022-09-28T01:58:02.926Z,52.67
2022-09-28T02:00:31.282Z,51.25
2022-09-28T02:03:05.354Z,49.85
2022-09-28T02:05:35.608Z,47.05
2022-09-28T02:08:09.048Z,50.03
2022-09-28T02:10:43.361Z,49.10
2022-09-28T02:13:19.983Z,50.22
2022-09-28T02:15:52.472Z,46.10
2022-09-28T02:18:20.408Z,51.08
2022-09-28T02:20:56.529Z,47.83
2022-09-28T02:23:28.526Z,45.33
2022-09-28T02:26:02.189Z,51.55
2022-09-28T02:28:31.334Z,51.80
2022-09-28T02:30:58.939Z,53.15
2022-09-28T02:33:31.832Z,50.15
2022-09-28T02:36:00.845Z,46.92
2022-09-28T02:38:28.558Z,49.13
2022-09-28T02:41:03.887Z,48.05
2022-09-28T02:43:45.162Z,49.95
2022-09-28T02:46:21.926Z,53.47
2022-09-28T02:49:19.887Z,54.00
2022-09-28T02:52:02.053Z,55.08
2022-09-28T02:54:47.599Z,57.33
2022-09-28T02:57:31.871Z,53.55
2022-09-28T03:00:05.734Z,53.75
2022-09-28T03:02:40.140Z,59.13
2022-09-28T03:05:15.547Z,53.47
2022-09-28T03:07:52.248Z,61.45
2022-09-28T03:10:28.374Z,58.03
2022-09-28T03:12:57.334Z,56.88
2022-09-28T03:15:28.486Z,56.67
2022-09-28T03:17:56.920Z,57.28
2022-09-28T03:20:25.176Z,59.97
2022-09-28T03:23:19.851Z,52.83
2022-09-28T03:25:40.772Z,52.85
2022-09-28T03:28:08.333Z,57.97
2022-09-28T03:33:08.625Z,53.30
2022-09-28T03:35:36.351Z,55.78
2022-09-28T03:38:04.240Z,53.63
2022-09-28T03:40:32.149Z,56.05
2022-09-28T03:43:00.692Z,52.28
2022-09-28T03:45:28.530Z,56.90
2022-09-28T03:47:57.511Z,47.17
2022-09-28T03:50:25.870Z,47.53
2022-09-28T03:52:53.998Z,50.17
2022-09-28T03:55:21.702Z,51.33
2022-09-28T03:57:54.082Z,54.33
2022-09-28T04:00:22.113Z,56.63
2022-09-28T04:02:50.405Z,54.10
2022-09-28T04:05:19.580Z,55.80
2022-09-28T04:07:47.158Z,53.45
2022-09-28T04:10:15.100Z,59.38
2022-09-28T04:12:42.800Z,56.47
2022-09-28T04:15:10.854Z,63.22
2022-09-28T04:17:40.194Z,61.30
2022-09-28T04:20:08.919Z,60.65
2022-09-28T04:22:37.976Z,65.55
2022-09-28T04:25:06.515Z,55.03
2022-09-28T04:27:35.704Z,55.45
2022-09-28T04:30:03.962Z,60.90
2022-09-28T04:32:31.771Z,60.40
2022-09-28T04:34:59.464Z,59.08
2022-09-28T04:37:27.192Z,50.63
2022-09-28T04:39:56.740Z,54.28
2022-09-28T04:42:24.525Z,52.75
2022-09-28T04:44:53.666Z,54.13
2022-09-28T04:47:21.221Z,58.70
2022-09-28T04:49:49.137Z,61.28
2022-09-28T04:52:18.482Z,61.72
2022-09-28T04:54:46.281Z,60.80
2022-09-28T04:57:15.731Z,62.03
2022-09-28T04:59:43.281Z,62.65
2022-09-28T05:02:11.422Z,64.95
2022-09-28T05:04:39.384Z,65.15
2022-09-28T05:07:07.205Z,71.70
2022-09-28T05:09:38.433Z,71.40
2022-09-28T05:12:06.690Z,68.67
2022-09-28T05:14:36.024Z,72.97
2022-09-28T05:17:03.871Z,67.78
2022-09-28T05:19:31.839Z,67.10
2022-09-28T05:21:59.472Z,71.63
2022-09-28T05:24:27.676Z,65.07
2022-09-28T05:26:55.286Z,72.18
2022-09-28T05:29:23.454Z,65.05
2022-09-28T05:31:52.687Z,53.10
2022-09-28T05:34:20.351Z,62.58
2022-09-28T05:36:48.077Z,70.45
2022-09-28T05:39:15.681Z,68.30
2022-09-28T05:41:43.476Z,80.25
2022-09-28T05:44:12.184Z,65.88
2022-09-28T05:46:39.757Z,61.65
2022-09-28T05:49:09.218Z,68.78
2022-09-28T05:51:36.986Z,61.25
2022-09-28T05:54:06.120Z,81.13
2022-09-28T05:56:34.257Z,89.22
2022-09-28T05:59:01.996Z,80.15
2022-09-28T06:01:30.569Z,74.40
2022-09-28T06:03:58.716Z,66.13
2022-09-28T06:06:27.665Z,69.70
2022-09-28T06:08:55.276Z,70.28
2022-09-28T06:11:23.189Z,75.63
2022-09-28T06:13:54.312Z,63.25
2022-09-28T06:16:22.082Z,74.53
2022-09-28T06:18:50.699Z,70.38
2022-09-28T06:21:18.256Z,72.80
2022-09-28T06:23:49.316Z,69.95
2022-09-28T06:26:17.378Z,72.10
2022-09-28T06:28:45.023Z,72.38
2022-09-28T06:31:12.974Z,70.55
2022-09-28T06:33:40.837Z,66.60
2022-09-28T06:36:08.865Z,65.25
2022-09-28T06:38:36.982Z,65.57
2022-09-28T06:41:06.461Z,60.72
2022-09-28T06:43:34.581Z,60.45
2022-09-28T06:46:02.702Z,52.28
2022-09-28T06:48:31.042Z,55.15
2022-09-28T06:50:58.626Z,50.17
2022-09-28T06:53:26.751Z,42.78
2022-09-28T06:55:55.363Z,43.63
2022-09-28T06:58:26.362Z,43.67
2022-09-28T07:00:56.656Z,43.60
2022-09-28T07:03:24.368Z,41.20
2022-09-28T07:05:53.406Z,37.70
2022-09-28T07:08:22.756Z,40.35
2022-09-28T07:10:51.242Z,34.20
2022-09-28T07:13:44.396Z,39.75
2022-09-28T07:16:08.211Z,38.72
2022-09-28T07:18:37.733Z,37.58
2022-09-28T07:21:05.632Z,36.95
2022-09-28T07:23:39.153Z,33.67
2022-09-28T07:26:10.004Z,33.42
2022-09-28T07:28:37.943Z,31.55
2022-09-28T07:31:07.137Z,30.33
2022-09-28T07:33:34.784Z,31.92
2022-09-28T07:36:03.624Z,32.58
2022-09-28T07:38:31.271Z,32.05
2022-09-28T07:40:58.935Z,30.48
2022-09-28T07:43:27.381Z,31.73
2022-09-28T07:45:54.999Z,30.70
2022-09-28T07:48:25.476Z,30.00
2022-09-28T07:50:55.276Z,32.28
2022-09-28T07:53:25.047Z,28.17
2022-09-28T07:55:53.526Z,29.90
2022-09-28T07:58:21.456Z,28.45
2022-09-28T08:00:50.124Z,26.35
2022-09-28T08:03:19.425Z,25.35
2022-09-28T08:05:48.618Z,22.25
2022-09-28T08:08:17.152Z,22.05
2022-09-28T08:10:47.208Z,21.30
2022-09-28T08:13:15.486Z,18.05
2022-09-28T08:15:46.167Z,17.25
2022-09-28T08:18:13.964Z,20.38
2022-09-28T08:20:42.216Z,21.40
2022-09-28T08:23:11.405Z,19.85
2022-09-28T08:25:38.996Z,20.63
2022-09-28T08:28:07.153Z,21.52
2022-09-28T08:30:34.945Z,22.13
2022-09-28T08:33:02.962Z,20.55
2022-09-28T08:35:30.722Z,27.98
2022-09-28T08:37:58.339Z,22.85
2022-09-28T08:40:27.399Z,25.58
2022-09-28T08:42:58.212Z,30.17
2022-09-28T08:45:28.249Z,19.88
2022-09-28T08:48:02.160Z,19.40
2022-09-28T08:50:33.120Z,21.40
2022-09-28T08:53:12.463Z,21.33
2022-09-28T08:55:43.773Z,17.02
2022-09-28T09:00:46.997Z,15.02
2022-09-28T09:03:17.879Z,14.00
2022-09-28T09:05:59.666Z,14.98
2022-09-28T09:08:41.489Z,15.63
2022-09-28T09:11:23.254Z,14.95
2022-09-28T09:14:23.406Z,17.02
2022-09-28T09:17:01.370Z,18.80
2022-09-28T09:19:35.980Z,19.13
2022-09-28T09:22:15.723Z,19.42
2022-09-28T09:24:49.481Z,16.95
2022-09-28T09:27:42.509Z,17.05
2022-09-28T09:30:17.733Z,16.55
2022-09-28T09:33:03.834Z,18.15
2022-09-28T09:35:59.815Z,14.27
2022-09-28T09:38:50.229Z,16.50
2022-09-28T09:41:31.323Z,17.58
2022-09-28T09:44:14.954Z,16.83
2022-09-28T09:46:47.155Z,18.45
2022-09-28T09:49:19.428Z,15.52
2022-09-28T09:51:53.004Z,15.65
2022-09-28T09:54:26.171Z,14.90
2022-09-28T09:57:00.019Z,20.10
2022-09-28T09:59:34.155Z,16.98
2022-09-28T10:02:03.473Z,14.27
2022-09-28T10:04:36.813Z,19.25
2022-09-28T10:07:06.825Z,14.00
2022-09-28T10:09:39.676Z,14.98
2022-09-28T10:12:09.720Z,17.20
2022-09-28T10:14:39.336Z,16.10
2022-09-28T10:17:10.757Z,14.13
2022-09-28T10:19:38.689Z,18.58
2022-09-28T10:22:06.584Z,16.42
2022-09-28T10:24:38.776Z,15.75
2022-09-28T10:27:11.426Z,16.92
2022-09-28T10:29:52.156Z,17.65
2022-09-28T10:32:22.708Z,18.98
2022-09-28T10:34:51.821Z,18.37
2022-09-28T10:37:19.920Z,20.45
2022-09-28T10:39:51.719Z,17.75
2022-09-28T10:42:22.246Z,17.02
2022-09-28T10:44:59.511Z,20.33
2022-09-28T10:47:30.155Z,20.50
2022-09-28T10:50:00.627Z,21.02
2022-09-28T10:52:35.297Z,21.70
2022-09-28T10:55:25.905Z,24.80
2022-09-28T10:57:53.891Z,22.27
2022-09-28T11:00:34.810Z,27.92
2022-09-28T11:03:03.171Z,25.92
2022-09-28T11:05:31.524Z,29.60
2022-09-28T11:08:03.730Z,27.63
2022-09-28T11:10:32.791Z,31.33
2022-09-28T11:13:00.964Z,33.25
2022-09-28T11:15:31.643Z,29.95
2022-09-28T11:18:19.209Z,29.60
2022-09-28T11:20:47.062Z,31.65
2022-09-28T11:23:21.764Z,30.63
2022-09-28T11:25:58.769Z,28.60
2022-09-28T11:28:31.642Z,31.17
2022-09-28T11:31:01.144Z,30.50
2022-09-28T11:33:33.508Z,31.73
2022-09-28T11:36:24.341Z,29.88
2022-09-28T11:38:59.789Z,30.73
2022-09-28T11:41:45.970Z,34.00
2022-09-28T11:44:32.557Z,31.05
2022-09-28T11:47:16.644Z,30.80
2022-09-28T11:49:49.669Z,28.55
2022-09-28T11:52:22.846Z,33.10
2022-09-28T11:54:55.681Z,29.63
2022-09-28T11:57:29.855Z,26.98
2022-09-28T12:00:00.583Z,32.28
2022-09-28T12:02:33.972Z,25.75
2022-09-28T12:05:17.111Z,29.00
2022-09-28T12:07:51.577Z,29.27
2022-09-28T12:10:33.157Z,29.70
2022-09-28T12:13:06.083Z,25.25
2022-09-28T12:16:11.626Z,26.05
2022-09-28T12:18:39.013Z,28.95
2022-09-28T12:21:22.473Z,24.85
2022-09-28T12:23:53.687Z,30.10
2022-09-28T12:26:35.914Z,32.42
2022-09-28T12:29:13.288Z,25.83
2022-09-28T12:31:52.305Z,25.15
2022-09-28T12:34:21.016Z,26.65
2022-09-28T12:37:02.957Z,23.40
2022-09-28T12:39:56.968Z,24.70
2022-09-28T12:42:40.988Z,24.67
2022-09-28T12:45:23.694Z,26.10
2022-09-28T12:48:22.892Z,20.73
2022-09-28T12:50:59.277Z,25.52
2022-09-28T12:54:02.896Z,22.48
2022-09-28T12:56:41.324Z,22.15
2022-09-28T12:59:18.853Z,24.58
2022-09-28T13:02:13.783Z,24.92
2022-09-28T13:05:16.839Z,17.98
2022-09-28T13:07:53.809Z,20.27
2022-09-28T13:10:30.225Z,21.98
2022-09-28T13:13:12.171Z,19.75
2022-09-28T13:15:45.255Z,18.60
2022-09-28T13:18:22.594Z,16.80
2022-09-28T13:21:09.376Z,17.90
2022-09-28T13:23:41.580Z,20.17
2022-09-28T13:26:18.570Z,20.15
2022-09-28T13:28:49.005Z,17.30
2022-09-28T13:31:21.873Z,22.70
2022-09-28T13:33:51.311Z,17.25
2022-09-28T13:36:39.140Z,17.98
2022-09-28T13:39:39.784Z,19.95
2022-09-28T13:42:09.915Z,16.60
2022-09-28T13:45:11.244Z,19.40
2022-09-28T13:48:03.543Z,22.58
2022-09-28T13:50:43.766Z,20.90
2022-09-28T13:53:20.541Z,26.40
2022-09-28T13:55:56.736Z,22.10
2022-09-28T13:58:30.615Z,18.40
2022-09-28T14:01:03.597Z,18.42
2022-09-28T14:03:43.998Z,21.95
2022-09-28T14:06:24.106Z,21.52
2022-09-28T14:09:23.410Z,18.75
2022-09-28T14:11:59.643Z,19.67
2022-09-28T14:14:43.865Z,29.45
2022-09-28T14:17:53.115Z,20.98
2022-09-28T14:20:25.057Z,24.23
2022-09-28T14:23:28.168Z,20.85
2022-09-28T14:26:17.618Z,20.50
2022-09-28T14:28:58.984Z,28.20
2022-09-28T14:31:29.483Z,24.92
2022-09-28T14:33:59.448Z,22.40
2022-09-28T14:36:34.558Z,22.02
2022-09-28T14:39:02.541Z,23.42
2022-09-28T14:41:33.570Z,26.35
2022-09-28T14:44:11.938Z,21.60
2022-09-28T14:46:44.996Z,24.08
2022-09-28T14:49:44.324Z,24.20
2022-09-28T14:52:13.478Z,25.30
2022-09-28T14:54:48.424Z,27.17
2022-09-28T14:57:18.905Z,28.60
2022-09-28T14:59:47.029Z,23.85
2022-09-28T15:02:24.196Z,26.38
2022-09-28T15:04:54.379Z,26.48
2022-09-28T15:07:24.700Z,29.80
2022-09-28T15:09:53.562Z,24.83
2022-09-28T15:12:24.941Z,25.13
2022-09-28T15:14:57.575Z,24.75
2022-09-28T15:17:28.774Z,25.97
2022-09-28T15:22:46.434Z,24.25
2022-09-28T15:25:18.555Z,27.17
2022-09-28T15:27:47.384Z,28.00
2022-09-28T15:30:23.050Z,48.05
2022-09-28T15:32:53.651Z,27.48
2022-09-28T15:35:24.038Z,30.90
2022-09-28T15:37:52.442Z,26.70
2022-09-28T15:40:33.822Z,24.10
2022-09-28T15:43:01.639Z,35.20
2022-09-28T15:45:34.775Z,30.92
2022-09-28T15:48:29.338Z,24.35
2022-09-28T15:51:03.290Z,34.00
2022-09-28T15:53:31.212Z,51.65
2022-09-28T15:56:05.142Z,71.15
2022-09-28T15:58:32.852Z,50.53
2022-09-28T16:01:23.333Z,68.88
2022-09-28T16:03:52.732Z,55.38
2022-09-28T16:06:20.623Z,52.58
2022-09-28T16:08:49.317Z,52.58
2022-09-28T16:11:21.385Z,64.68
2022-09-28T16:13:56.482Z,62.85
2022-09-28T16:16:28.082Z,49.53
2022-09-28T16:18:59.512Z,47.63
2022-09-28T16:21:45.400Z,44.10
2022-09-28T16:24:22.689Z,55.63
2022-09-28T16:26:56.736Z,44.70
2022-09-28T16:29:26.721Z,40.72
2022-09-28T16:31:54.762Z,35.83
2022-09-28T16:34:26.904Z,47.75
2022-09-28T16:36:54.771Z,32.75
2022-09-28T16:39:22.363Z,42.25
2022-09-28T16:41:54.036Z,42.42
2022-09-28T16:46:54.502Z,42.70
2022-09-28T16:49:23.880Z,40.22
2022-09-28T16:51:53.110Z,45.60
2022-09-28T16:54:23.241Z,42.28
2022-09-28T16:56:50.985Z,44.25
2022-09-28T16:59:18.636Z,41.47
2022-09-28T17:01:53.032Z,55.42
2022-09-28T17:04:21.208Z,47.50
2022-09-28T17:06:50.479Z,50.00
2022-09-28T17:09:21.029Z,43.08
2022-09-28T17:11:49.676Z,37.45
2022-09-28T17:14:17.785Z,42.10
2022-09-28T17:19:33.826Z,49.45
2022-09-28T17:22:01.633Z,56.88
2022-09-28T17:24:30.808Z,48.53
2022-09-28T17:26:58.484Z,36.97
2022-09-28T17:29:26.702Z,41.15
2022-09-28T17:31:54.428Z,42.15
2022-09-28T17:34:22.250Z,48.63
2022-09-28T17:36:50.067Z,40.45
2022-09-28T17:39:18.921Z,35.72
2022-09-28T17:41:48.349Z,38.90
2022-09-28T17:44:16.499Z,43.42
2022-09-28T17:46:46.236Z,37.95
2022-09-28T17:49:14.980Z,38.15
2022-09-28T17:51:42.679Z,37.08
2022-09-28T17:54:10.289Z,40.05
2022-09-28T17:56:37.916Z,41.50
2022-09-28T17:59:14.258Z,34.40
2022-09-28T18:01:42.149Z,36.53
2022-09-28T18:04:23.029Z,37.40
2022-09-28T18:06:59.682Z,43.03
2022-09-28T18:09:27.825Z,38.38
2022-09-28T18:11:59.697Z,36.50
2022-09-28T18:14:28.977Z,34.58
2022-09-28T18:16:56.669Z,40.85
2022-09-28T18:19:27.462Z,42.00
2022-09-28T18:21:58.937Z,35.58
2022-09-28T18:24:26.711Z,39.42
2022-09-28T18:26:54.537Z,37.45
2022-09-28T18:29:22.514Z,43.60
2022-09-28T18:31:51.731Z,38.00
2022-09-28T18:34:19.640Z,41.85
2022-09-28T18:36:47.685Z,46.08
2022-09-28T18:39:15.297Z,66.60
2022-09-28T18:41:42.966Z,60.92
2022-09-28T18:44:10.763Z,60.53
2022-09-28T18:46:38.401Z,63.80
2022-09-28T18:49:07.643Z,62.13
2022-09-28T18:51:35.435Z,63.60
2022-09-28T18:54:03.712Z,53.30
2022-09-28T18:56:31.751Z,50.33
2022-09-28T18:58:59.746Z,48.13
2022-09-28T19:01:30.846Z,50.63
2022-09-28T19:03:59.906Z,44.30
2022-09-28T19:06:29.446Z,43.65
2022-09-28T19:08:57.523Z,47.92
2022-09-28T19:11:26.115Z,50.90
2022-09-28T19:13:54.215Z,57.35
2022-09-28T19:16:24.419Z,57.17
2022-09-28T19:18:52.658Z,53.67
2022-09-28T19:21:20.667Z,52.08
2022-09-28T19:23:50.166Z,62.45
2022-09-28T19:26:20.226Z,57.03
2022-09-28T19:28:48.634Z,51.55
2022-09-28T19:31:16.752Z,50.45
2022-09-28T19:33:44.982Z,51.58
2022-09-28T19:36:14.793Z,52.25
2022-09-28T19:38:42.521Z,42.75
2022-09-28T19:41:12.983Z,44.40
2022-09-28T19:43:40.528Z,44.22
2022-09-28T19:46:08.346Z,45.33
2022-09-28T19:48:36.307Z,50.10
2022-09-28T19:51:06.049Z,42.00
2022-09-28T19:53:35.348Z,45.60
2022-09-28T19:56:06.580Z,43.88
2022-09-28T19:58:36.776Z,47.28
2022-09-28T20:01:05.737Z,46.03
2022-09-28T20:03:33.419Z,45.75
2022-09-28T20:06:01.990Z,42.47
2022-09-28T20:08:30.020Z,45.20
2022-09-28T20:10:58.781Z,43.75
2022-09-28T20:13:31.033Z,43.83
2022-09-28T20:16:05.582Z,44.97
2022-09-28T20:18:35.002Z,47.25
2022-09-28T20:21:03.301Z,45.65
2022-09-28T20:23:30.956Z,40.85
2022-09-28T20:25:59.089Z,46.28
2022-09-28T20:28:26.681Z,49.05
2022-09-28T20:30:54.583Z,44.42
2022-09-28T20:33:28.766Z,48.13
2022-09-28T20:35:57.090Z,43.63
2022-09-28T20:38:24.773Z,45.97
2022-09-28T20:40:52.427Z,44.63
2022-09-28T20:43:20.189Z,48.78
2022-09-28T20:45:47.753Z,40.50
2022-09-28T20:48:15.339Z,44.60
2022-09-28T20:50:44.784Z,49.65
2022-09-28T20:53:12.452Z,51.58
2022-09-28T20:55:40.057Z,47.67
2022-09-28T20:58:07.709Z,49.00
2022-09-28T21:00:35.272Z,47.92
2022-09-28T21:03:02.928Z,49.70
2022-09-28T21:05:30.859Z,49.03
2022-09-28T21:08:00.014Z,52.67
2022-09-28T21:10:27.724Z,51.72
2022-09-28T21:12:55.559Z,53.88
2022-09-28T21:15:23.384Z,54.50
2022-09-28T21:17:52.536Z,50.35
2022-09-28T21:20:20.514Z,50.42
2022-09-28T21:22:48.317Z,46.45
2022-09-28T21:25:17.335Z,44.83
2022-09-28T21:27:45.315Z,51.17
2022-09-28T21:30:13.460Z,54.67
2022-09-28T21:32:41.397Z,56.05
2022-09-28T21:35:09.859Z,50.78
2022-09-28T21:37:37.470Z,59.20
2022-09-28T21:40:05.837Z,54.70
2022-09-28T21:42:35.072Z,51.00
2022-09-28T21:45:02.684Z,53.08
2022-09-28T21:47:30.585Z,59.53
2022-09-28T21:49:58.265Z,53.10
2022-09-28T21:52:26.332Z,60.83
2022-09-28T21:54:53.917Z,50.75
2022-09-28T21:57:21.652Z,56.85
2022-09-28T21:59:50.776Z,54.40
2022-09-28T22:02:18.453Z,53.75
2022-09-28T22:04:46.240Z,52.30
2022-09-28T22:07:13.817Z,64.95
2022-09-28T22:09:41.778Z,51.17
2022-09-28T22:12:09.652Z,56.13
2022-09-28T22:14:38.363Z,56.60
2022-09-28T22:17:07.374Z,54.75
2022-09-28T22:19:35.254Z,56.65
2022-09-28T22:22:02.837Z,59.78
2022-09-28T22:24:30.499Z,55.00
2022-09-28T22:26:58.175Z,55.30
2022-09-28T22:29:25.855Z,57.20
2022-09-28T22:31:53.412Z,52.17
2022-09-28T22:34:22.451Z,52.40
2022-09-28T22:36:50.188Z,62.47
2022-09-28T22:39:17.773Z,66.20
2022-09-28T22:41:45.625Z,66.40
2022-09-28T22:44:13.239Z,60.22
2022-09-28T22:46:40.938Z,51.83
2022-09-28T22:49:10.670Z,57.83
2022-09-28T22:51:39.834Z,52.50
2022-09-28T22:54:11.663Z,55.00
2022-09-28T22:56:39.439Z,58.13
2022-09-28T22:59:07.013Z,58.28
2022-09-28T23:01:34.954Z,63.38
2022-09-28T23:04:02.608Z,56.47
2022-09-28T23:06:30.556Z,58.45
2022-09-28T23:08:59.983Z,56.42
2022-09-28T23:11:28.770Z,64.28
2022-09-28T23:13:58.034Z,64.00
2022-09-28T23:16:26.622Z,59.42
2022-09-28T23:18:56.194Z,53.45
2022-09-28T23:21:25.347Z,50.63
2022-09-28T23:23:55.387Z,59.38
2022-09-28T23:26:27.264Z,58.15
2022-09-28T23:31:24.490Z,67.35
2022-09-28T23:33:52.485Z,59.80
2022-09-28T23:36:20.857Z,66.63
2022-09-28T23:38:48.616Z,53.92
2022-09-28T23:41:16.147Z,59.97
2022-09-28T23:43:45.991Z,58.10
2022-09-28T23:46:17.280Z,55.10
2022-09-28T23:48:48.413Z,55.50
2022-09-28T23:51:17.283Z,53.33
2022-09-28T23:53:45.079Z,59.78
2022-09-28T23:56:13.128Z,65.50
2022-09-28T23:58:41.102Z,68.32
